• Join FlightAware (Why Join?)
  • Login
  • US Flag 
05:15AM EDT


 

Airport Tracker/Info


-or-


 

Live Flight TrackerFlight Track Log ✈ SWA2728 ✈ 01-Jun-2014 ✈ KEWR - KPHX

Flight Track Log - Related Links

Times and Time Zones

All times are in EDT time to prevent confusion due to time zone crossing. See the SWA2728 flight status page for this flight to view local times or setup timezone preferences in your user account.

Time Position Orientation Groundspeed Altitude Reporting Facility
EDT Latitude Longitude Course Direction KTS MPH feet Rate Location/Type
02:11PM 40.6500 -74.1833 229° Southwest 161 185 1,500  Level New York TRACON
02:12PM 40.6167 -74.2333 229° Southwest 227 261 3,500 2,100 Climbing New York TRACON
02:13PM 40.6333 -74.3167 285° West 261 300 5,800 2,400 Climbing New York TRACON
02:14PM 40.6667 -74.4167 294° West 286 329 8,400 2,700 Climbing New York TRACON
02:15PM 40.6833 -74.5167 282° West 296 341 11,300 2,700 Climbing New York TRACON
02:16PM 40.7500 -74.5833 323° Northwest 293 337 13,900 1,980 Climbing New York TRACON
02:17PM 40.8489 -74.6803 323° Northwest 322 371 16,300 1,200 Climbing New York Center
02:18PM 40.8408 -74.8003 265° West 308 354 17,000 300 Climbing New York Center
02:19PM 40.8214 -74.9392 260° West 335 386 17,000 1,140 Level New York Center
02:21PM 40.7900 -75.2250 262° West 403 464 20,500 1,800 Climbing New York Center
02:22PM 40.7633 -75.3767 257° West 410 472 22,400 1,860 Climbing New York Center
02:23PM 40.7161 -75.5214 247° West 415 478 24,300 1,920 Climbing New York Center
02:24PM 40.6603 -75.6653 243° Southwest 425 489 26,300 1,560 Climbing New York Center
02:27PM 40.5414 -75.9786 252° West 447 514 29,400 1,500 Climbing Cleveland Center
02:28PM 40.4719 -76.1594 243° Southwest 458 527 31,100 1,500 Climbing Cleveland Center
02:29PM 40.4136 -76.3111 243° Southwest 464 534 32,500 1,320 Climbing Cleveland Center
02:29PM 40.3725 -76.4131 242° Southwest 462 532 33,500 1,320 Climbing New York Center
02:30PM 40.3153 -76.5608 243° Southwest 462 532 34,900 1,260 Climbing New York Center
02:31PM 40.2706 -76.7097 249° West 457 526 36,000 480 Climbing New York Center
02:32PM 40.2353 -76.8669 254° West 444 511 36,000  Level New York Center
02:33PM 40.1983 -77.0161 252° West 439 505 36,000  Level New York Center
02:34PM 40.1611 -77.1675 252° West 434 499 36,000  Level New York Center
02:35PM 40.1228 -77.3325 253° West 434 499 36,000  Level New York Center
02:37PM 40.0719 -77.5489 253° West 439 505 36,000  Level Cleveland Center
02:38PM 40.0678 -77.7078 268° West 443 510 36,000  Level Cleveland Center
02:39PM 40.0656 -77.8636 269° West 436 502 36,000  Level Cleveland Center
02:40PM 40.0653 -78.0411 270° West 436 502 36,000  Level Cleveland Center
02:41PM 40.0633 -78.2008 269° West 436 502 36,000  Level Cleveland Center
02:42PM 40.0625 -78.3611 270° West 438 504 36,000  Level Cleveland Center
02:43PM 40.0600 -78.5542 269° West 441 507 36,000  Level Cleveland Center
02:44PM 40.0594 -78.7114 270° West 441 507 36,000  Level Cleveland Center
02:45PM 40.0575 -78.8697 269° West 439 505 36,000  Level Cleveland Center
02:46PM 40.0567 -79.0300 270° West 440 506 36,000  Level Cleveland Center
02:47PM 40.0522 -79.2000 268° West 440 506 36,000  Level Cleveland Center
02:48PM 40.0506 -79.3586 269° West 439 505 36,000  Level Cleveland Center
02:49PM 40.0503 -79.5150 270° West 436 502 36,000  Level Cleveland Center
02:50PM 40.0497 -79.6711 270° West 433 498 36,000  Level Cleveland Center
02:51PM 40.0478 -79.8269 269° West 433 498 36,000  Level Cleveland Center
02:52PM 40.0461 -80.0150 269° West 431 496 36,000  Level Cleveland Center
02:53PM 40.0444 -80.1728 269° West 431 496 36,000  Level Cleveland Center
02:54PM 40.0436 -80.3289 270° West 430 495 36,000  Level Cleveland Center
02:56PM 40.0406 -80.4872 269° West 434 499 36,000  Level Cleveland Center
02:57PM 40.0392 -80.6436 269° West 433 498 36,000  Level Cleveland Center
02:58PM 40.0369 -80.8003 269° West 432 497 36,000  Level Cleveland Center
02:59PM 40.0336 -80.9575 268° West 433 498 36,000  Level Cleveland Center
03:00PM 40.0308 -81.1447 269° West 433 498 36,000  Level Cleveland Center
03:01PM 40.0275 -81.2994 268° West 432 497 36,000  Level Cleveland Center
03:02PM 40.0244 -81.4394 268° West 429 494 36,000  Level Cleveland Center
03:03PM 40.0217 -81.6003 269° West 429 494 36,000  Level Indianapolis Center
03:04PM 40.0172 -81.7561 268° West 428 493 36,000  Level Indianapolis Center
03:05PM 40.0128 -81.9303 268° West 427 491 36,000  Level Indianapolis Center
03:06PM 40.0089 -82.0836 268° West 426 490 36,000  Level Indianapolis Center
03:07PM 40.0056 -82.2367 268° West 425 489 36,000  Level Indianapolis Center
03:08PM 40.0000 -82.3903 267° West 425 489 36,000  Level Indianapolis Center
03:09PM 39.9958 -82.5447 268° West 425 489 36,000  Level Indianapolis Center
03:10PM 39.9917 -82.6992 268° West 426 490 36,000  Level Indianapolis Center
03:11PM 39.9850 -82.8856 267° West 427 491 36,000  Level Indianapolis Center
03:12PM 39.9803 -83.0392 268° West 427 491 36,000  Level Indianapolis Center
03:13PM 39.9750 -83.1933 267° West 427 491 36,000  Level Indianapolis Center
03:14PM 39.9706 -83.3469 268° West 427 491 36,000  Level Indianapolis Center
03:15PM 39.9639 -83.5328 267° West 437 503 36,000  Level Indianapolis Center
03:16PM 39.9558 -83.6864 266° West 437 503 36,000  Level Indianapolis Center
03:17PM 39.9483 -83.8406 266° West 436 502 36,000  Level Indianapolis Center
03:18PM 39.9428 -83.9969 267° West 436 502 36,000  Level Indianapolis Center
03:19PM 39.9356 -84.1522 267° West 435 501 36,000  Level Indianapolis Center
03:20PM 39.9269 -84.3389 267° West 435 501 36,000  Level Indianapolis Center
03:21PM 39.9197 -84.4944 267° West 434 499 36,000  Level Indianapolis Center
03:22PM 39.9125 -84.6494 267° West 434 499 36,000  Level Indianapolis Center
03:23PM 39.9042 -84.8036 266° West 432 497 36,000  Level Indianapolis Center
03:24PM 39.8958 -84.9725 266° West 432 497 36,000  Level Indianapolis Center
03:25PM 39.8869 -85.1264 266° West 431 496 36,000  Level Indianapolis Center
03:27PM 39.8794 -85.2797 266° West 429 494 36,000  Level Indianapolis Center
03:28PM 39.8669 -85.4319 264° West 427 491 36,000  Level Indianapolis Center
03:29PM 39.8481 -85.6106 262° West 421 484 36,000  Level Indianapolis Center
03:30PM 39.8339 -85.7586 263° West 417 480 36,000  Level Indianapolis Center
03:31PM 39.8394 -85.9064 273° West 417 480 36,000  Level Indianapolis Center
03:32PM 39.8564 -86.0553 278° West 417 480 36,000  Level Indianapolis Center
03:33PM 39.8747 -86.2047 279° West 420 483 36,000  Level Indianapolis Center
03:34PM 39.8950 -86.3833 278° West 423 487 36,000  Level Indianapolis Center
03:35PM 39.9011 -86.5336 273° West 424 488 36,000  Level Indianapolis Center
03:36PM 39.9022 -86.6831 271° West 423 487 36,000  Level Indianapolis Center
03:37PM 39.8928 -86.8331 265° West 421 484 36,000 600 Level Indianapolis Center
03:38PM 39.8742 -87.0133 262° West 421 484 37,300 900 Climbing Indianapolis Center
03:39PM 39.8519 -87.1594 259° West 417 480 37,900 300 Climbing Indianapolis Center
03:40PM 39.8736 -87.3067 281° West 425 489 38,000  Climbing Indianapolis Center
03:41PM 39.9206 -87.4497 293° West 428 493 38,000  Level Indianapolis Center
03:42PM 39.9658 -87.5947 292° West 429 494 38,000  Level Indianapolis Center
03:43PM 40.0058 -87.7411 290° West 429 494 38,000  Level Indianapolis Center
03:44PM 40.0078 -87.9536 271° West 422 486 38,000  Level Chicago Center
03:45PM 39.9828 -88.1369 260° West 427 491 38,000  Level Chicago Center
03:47PM 39.9617 -88.2886 260° West 426 490 38,000  Level Chicago Center
03:48PM 39.9392 -88.4453 259° West 434 499 38,000  Level Chicago Center
03:49PM 39.9181 -88.5997 260° West 434 499 38,000  Level Chicago Center
03:50PM 39.8956 -88.7533 259° West 433 498 38,000  Level Chicago Center
03:51PM 39.8747 -88.9075 260° West 433 498 38,000  Level Chicago Center
03:52PM 39.8514 -89.0608 259° West 432 497 38,000  Level Chicago Center
03:53PM 39.8247 -89.2442 259° West 431 496 38,000  Level Chicago Center
03:54PM 39.8014 -89.3969 259° West 431 496 38,000  Level Kansas City Center
03:55PM 39.7789 -89.5514 259° West 431 496 38,000  Level Kansas City Center
03:56PM 39.7558 -89.7058 259° West 432 497 38,000  Level Kansas City Center
03:58PM 39.7094 -90.0111 259° West 432 497 38,000  Level Chicago Center
03:59PM 39.6847 -90.1644 258° West 432 497 38,000  Level Chicago Center
04:00PM 39.6567 -90.3469 259° West 430 495 38,000  Level Chicago Center
04:01PM 39.6325 -90.5006 259° West 431 496 38,000  Level Chicago Center
04:03PM 39.5814 -90.8292 258° West 432 497 38,000  Level Kansas City Center
04:04PM 39.5567 -90.9814 258° West 432 497 38,000  Level Kansas City Center
04:05PM 39.5322 -91.1306 258° West 432 497 38,000  Level Kansas City Center
04:06PM 39.5069 -91.2822 258° West 432 497 38,000  Level Kansas City Center
04:07PM 39.4822 -91.4325 258° West 431 496 38,000  Level Kansas City Center
04:08PM 39.4511 -91.6156 258° West 432 497 38,000  Level Kansas City Center
04:09PM 39.4236 -91.7747 257° West 432 497 38,000  Level Kansas City Center
04:10PM 39.3981 -91.9247 258° West 432 497 38,000  Level Kansas City Center
04:11PM 39.3728 -92.0736 258° West 431 496 38,000  Level Kansas City Center
04:12PM 39.3469 -92.2222 257° West 425 489 38,000  Level Kansas City Center
04:14PM 39.3203 -92.3711 257° West 426 490 38,000  Level Kansas City Center
04:15PM 39.2936 -92.5206 257° West 426 490 38,000  Level Kansas City Center
04:16PM 39.2611 -92.7064 257° West 426 490 38,000  Level Kansas City Center
04:17PM 39.2356 -92.8469 257° West 426 490 38,000  Level Kansas City Center
04:18PM 39.2081 -92.9961 257° West 427 491 38,000  Level Kansas City Center
04:19PM 39.1817 -93.1436 257° West 426 490 38,000  Level Kansas City Center
04:20PM 39.1539 -93.2917 256° West 427 491 38,000  Level Kansas City Center
04:21PM 39.1239 -93.4514 256° West 425 489 38,000  Level Kansas City Center
04:22PM 39.0967 -93.5967 256° West 422 486 38,000  Level Kansas City Center
04:23PM 39.0703 -93.7400 257° West 417 480 38,000  Level Kansas City Center
04:24PM 39.0383 -93.9103 256° West 413 475 38,000  Level Kansas City Center
04:25PM 39.0106 -94.0553 256° West 412 474 38,000  Level Kansas City Center
04:26PM 38.9836 -94.1939 256° West 410 472 38,000  Level Kansas City Center
04:27PM 38.9558 -94.3339 256° West 409 471 38,000  Level Kansas City Center
04:28PM 38.9275 -94.4756 256° West 406 467 38,000  Level Kansas City Center
04:29PM 38.9008 -94.6133 256° West 404 465 38,000  Level Kansas City Center
04:30PM 38.8678 -94.7803 256° West 404 465 38,000  Level Kansas City Center
04:31PM 38.8392 -94.9206 255° West 404 465 38,000  Level Kansas City Center
04:32PM 38.8108 -95.0625 256° West 405 466 38,000  Level Kansas City Center
04:33PM 38.7825 -95.2036 256° West 406 467 38,000  Level Kansas City Center
04:34PM 38.7542 -95.3439 256° West 406 467 38,000  Level Kansas City Center
04:35PM 38.7258 -95.4844 256° West 406 467 38,000  Level Kansas City Center
04:36PM 38.6972 -95.6239 255° West 405 466 38,000  Level Kansas City Center
04:37PM 38.6628 -95.7903 255° West 405 466 38,000  Level Kansas City Center
04:38PM 38.6347 -95.9303 256° West 405 466 38,000  Level Kansas City Center
04:39PM 38.6044 -96.0664 254° West 404 465 38,000  Level Kansas City Center
04:40PM 38.5756 -96.2028 255° West 398 458 38,000  Level Kansas City Center
04:41PM 38.5467 -96.3394 255° West 398 458 38,000  Level Kansas City Center
04:42PM 38.5167 -96.4753 254° West 398 458 38,000  Level Kansas City Center
04:44PM 38.4817 -96.6400 255° West 399 459 38,000  Level Kansas City Center
04:45PM 38.4517 -96.7761 254° West 399 459 38,000  Level Kansas City Center
04:46PM 38.4194 -96.9200 254° West 399 459 38,000  Level Kansas City Center
04:47PM 38.3897 -97.0564 255° West 399 459 38,000  Level Kansas City Center
04:48PM 38.3600 -97.1925 254° West 400 460 38,000  Level Kansas City Center
04:49PM 38.3306 -97.3283 255° West 400 460 38,000  Level Kansas City Center
04:50PM 38.2992 -97.4636 254° West 400 460 38,000  Level Kansas City Center
04:51PM 38.2692 -97.5981 254° West 399 459 38,000  Level Kansas City Center
04:52PM 38.2336 -97.7594 254° West 399 459 38,000  Level Kansas City Center
04:53PM 38.1853 -97.8850 244° Southwest 399 459 38,000  Level Kansas City Center
04:54PM 38.1303 -98.0214 243° Southwest 400 460 38,000  Level Kansas City Center
04:55PM 38.0728 -98.1558 242° Southwest 401 461 38,000  Level Kansas City Center
04:56PM 38.0194 -98.2808 242° Southwest 401 461 38,000  Level Kansas City Center
04:57PM 37.9686 -98.4056 243° Southwest 401 461 38,000  Level Kansas City Center
04:58PM 37.9178 -98.5322 243° Southwest 402 463 38,000  Level Kansas City Center
04:59PM 37.8667 -98.6594 243° Southwest 403 464 38,000  Level Kansas City Center
05:00PM 37.8161 -98.7883 244° Southwest 406 467 38,000  Level Kansas City Center
05:01PM 37.7536 -98.9392 242° Southwest 406 467 38,000  Level Kansas City Center
05:02PM 37.7019 -99.0667 243° Southwest 407 468 38,000  Level Kansas City Center
05:03PM 37.6658 -99.2008 251° West 406 467 38,000  Level Kansas City Center
05:04PM 37.6372 -99.3364 255° West 405 466 38,000  Level Kansas City Center
05:05PM 37.6028 -99.4911 254° West 404 465 38,000  Level Kansas City Center
05:06PM 37.5572 -99.6100 244° Southwest 395 455 38,000  Level Kansas City Center
05:07PM 37.4847 -99.7408 235° Southwest 402 463 38,000  Level Kansas City Center
05:08PM 37.4233 -99.8528 235° Southwest 402 463 38,000  Level Kansas City Center
05:09PM 37.3303 -99.9644 224° Southwest 414 476 38,000  Level Kansas City Center
05:10PM 37.2500 -100.0583 223° Southwest 412 474 38,000  Level Kansas City Center
05:11PM 37.1558 -100.1681 223° Southwest 412 474 38,000  Level Kansas City Center
05:13PM 37.0753 -100.2622 223° Southwest 412 474 38,000  Level Kansas City Center
05:14PM 37.0261 -100.3781 242° Southwest 405 466 38,000  Level Kansas City Center
05:15PM 36.9972 -100.5297 257° West 401 461 38,000  Level Kansas City Center
05:16PM 36.9722 -100.6594 256° West 401 461 38,000  Level Kansas City Center
05:17PM 36.9417 -100.8111 256° West 401 461 38,000  Level Kansas City Center
05:18PM 36.9156 -100.9383 256° West 400 460 38,000  Level Kansas City Center
05:19PM 36.8858 -101.0867 256° West 397 457 38,000  Level Kansas City Center
05:20PM 36.8603 -101.2117 256° West 393 452 38,000  Level Kansas City Center
05:21PM 36.8317 -101.3589 256° West 392 451 38,000  Level Kansas City Center
05:22PM 36.8058 -101.4861 256° West 392 451 38,000  Level Kansas City Center
05:23PM 36.7800 -101.6142 256° West 393 452 38,000  Level Kansas City Center
05:24PM 36.7497 -101.7628 256° West 393 452 38,000  Level Kansas City Center
05:25PM 36.7233 -101.8903 256° West 394 453 38,000  Level Kansas City Center
05:26PM 36.6919 -102.0375 255° West 394 453 38,000  Level Kansas City Center
05:27PM 36.6653 -102.1647 255° West 394 453 38,000  Level Kansas City Center
05:28PM 36.6358 -102.3133 256° West 394 453 38,000  Level Kansas City Center
05:29PM 36.6089 -102.4328 254° West 394 453 38,000  Level Kansas City Center
05:30PM 36.5639 -102.6486 256° West 401 461 38,000  Level Albuquerque Center
05:31PM 36.5344 -102.7833 255° West 403 464 38,000  Level Albuquerque Center
05:33PM 36.5050 -102.9261 256° West 403 464 38,000  Level Albuquerque Center
05:34PM 36.4758 -103.0631 255° West 404 465 38,000  Level Albuquerque Center
05:35PM 36.4456 -103.1961 254° West 403 464 38,000  Level Albuquerque Center
05:36PM 36.4167 -103.3325 255° West 403 464 38,000  Level Albuquerque Center
05:37PM 36.3872 -103.4664 255° West 403 464 38,000  Level Albuquerque Center
05:38PM 36.3514 -103.6200 254° West 401 461 38,000  Level Albuquerque Center
05:39PM 36.3225 -103.7544 255° West 401 461 38,000  Level Albuquerque Center
05:40PM 36.2922 -103.8856 254° West 399 459 38,000  Level Albuquerque Center
05:41PM 36.2625 -104.0186 255° West 398 458 38,000  Level Albuquerque Center
05:42PM 36.2314 -104.1514 254° West 398 458 38,000  Level Albuquerque Center
05:43PM 36.2017 -104.2814 254° West 397 457 38,000  Level Albuquerque Center
05:44PM 36.1714 -104.4111 254° West 395 455 38,000  Level Albuquerque Center
05:45PM 36.1369 -104.5642 254° West 394 453 38,000  Level Albuquerque Center
05:46PM 36.1061 -104.6942 254° West 394 453 38,000  Level Albuquerque Center
05:47PM 36.0758 -104.8236 254° West 393 452 38,000  Level Albuquerque Center
05:48PM 36.0428 -104.9575 253° West 399 459 38,000  Level Albuquerque Center
05:49PM 36.0122 -105.0889 254° West 399 459 38,000  Level Albuquerque Center
05:50PM 35.9808 -105.2194 253° West 398 458 38,000  Level Albuquerque Center
05:51PM 35.9486 -105.3525 253° West 398 458 38,000  Level Albuquerque Center
05:52PM 35.9131 -105.5058 254° West 398 458 38,000  Level Albuquerque Center
05:53PM 35.8811 -105.6361 253° West 398 458 38,000  Level Albuquerque Center
05:54PM 35.8478 -105.7686 253° West 402 463 38,000  Level Albuquerque Center
05:55PM 35.8172 -105.8975 254° West 401 461 38,000  Level Albuquerque Center
05:56PM 35.7875 -106.0247 254° West 390 449 38,000  Level Albuquerque Center
05:57PM 35.7564 -106.1494 253° West 389 448 38,000  Level Albuquerque Center
05:58PM 35.7194 -106.2900 252° West 386 444 38,000  Level Albuquerque Center
05:59PM 35.6861 -106.4247 253° West 385 443 38,000  Level Albuquerque Center
06:00PM 35.6542 -106.5561 253° West 390 449 38,000  Level Albuquerque Center
06:01PM 35.6200 -106.6892 253° West 391 450 38,000  Level Albuquerque Center
06:02PM 35.5881 -106.8150 253° West 389 448 38,000  Level Albuquerque Center
06:03PM 35.5556 -106.9400 252° West 387 445 38,000  Level Albuquerque Center
06:05PM 35.5217 -107.0717 252° West 381 438 38,000  Level Albuquerque Center
06:06PM 35.4908 -107.1944 253° West 381 438 38,000 -300 Level Albuquerque Center
06:07PM 35.4614 -107.3131 253° West 381 438 37,400 -840 Descending Albuquerque Center
06:08PM 35.4253 -107.4519 252° West 381 438 36,300 -720 Descending Albuquerque Center
06:09PM 35.3939 -107.5714 252° West 382 440 36,000 -180 Descending Albuquerque Center
06:10PM 35.3561 -107.7103 252° West 384 442 36,000  Level Albuquerque Center
06:11PM 35.3264 -107.8275 253° West 382 440 36,000  Level Albuquerque Center
06:12PM 35.2892 -107.9669 252° West 382 440 36,000  Level Albuquerque Center
06:13PM 35.2569 -108.0878 252° West 384 442 36,000  Level Albuquerque Center
06:14PM 35.2250 -108.2072 252° West 384 442 36,000 -540 Level Albuquerque Center
06:15PM 35.1881 -108.3472 252° West 384 442 34,900 -1,020 Descending Albuquerque Center
06:16PM 35.1556 -108.4647 251° West 384 442 34,000 -480 Descending Albuquerque Center
06:17PM 35.1194 -108.5992 252° West 377 434 34,000  Level Albuquerque Center
06:18PM 35.0883 -108.7150 252° West 376 433 34,000  Level Albuquerque Center
06:19PM 35.0503 -108.8506 251° West 376 433 34,000  Level Albuquerque Center
06:20PM 35.0167 -108.9639 250° West 376 433 34,000  Level Albuquerque Center
06:21PM 34.9708 -109.0942 247° West 375 432 34,000  Level Albuquerque Center
06:22PM 34.9325 -109.2092 248° West 376 433 34,000  Level Albuquerque Center
06:23PM 34.8869 -109.3419 247° West 376 433 34,000  Level Albuquerque Center
06:24PM 34.8472 -109.4556 247° West 377 434 34,000  Level Albuquerque Center
06:25PM 34.8083 -109.5683 247° West 377 434 34,000  Level Albuquerque Center
06:26PM 34.7625 -109.6997 247° West 377 434 34,000  Level Albuquerque Center
06:27PM 34.7242 -109.8122 248° West 377 434 34,000  Level Albuquerque Center
06:28PM 34.6778 -109.9408 246° West 376 433 34,000  Level Albuquerque Center
06:29PM 34.6361 -110.0517 245° Southwest 375 432 34,000  Level Albuquerque Center
06:30PM 34.5911 -110.1872 248° West 382 440 34,000  Level Albuquerque Center
06:31PM 34.5497 -110.2975 246° West 381 438 34,000 -600 Level Albuquerque Center
06:32PM 34.4997 -110.4142 243° Southwest 374 430 32,800 -1,560 Descending Albuquerque Center
06:33PM 34.4600 -110.5294 247° West 374 430 30,800 -1,920 Descending Albuquerque Center
06:34PM 34.4203 -110.6347 245° Southwest 353 406 28,900 -1,860 Descending Albuquerque Center
06:36PM 34.3767 -110.7372 243° Southwest 348 400 27,000 -2,040 Descending Albuquerque Center
06:37PM 34.3125 -110.8494 235° Southwest 344 396 24,700 -2,040 Descending Albuquerque Center
06:38PM 34.2489 -110.9328 227° Southwest 340 391 22,900 -1,800 Descending Albuquerque Center
06:39PM 34.1867 -111.0111 226° Southwest 330 380 21,100 -1,800 Descending Albuquerque Center
06:40PM 34.1278 -111.0897 228° Southwest 323 372 19,300 -1,800 Descending Albuquerque Center
06:41PM 34.0700 -111.1644 227° Southwest 313 360 17,400 -1,800 Descending Albuquerque Center
06:42PM 34.0122 -111.2375 226° Southwest 306 352 15,600 -1,740 Descending Albuquerque Center
06:43PM 33.9564 -111.3089 227° Southwest 297 342 13,900 -1,620 Descending Albuquerque Center
06:44PM 33.8883 -111.3958 227° Southwest 296 341 12,300 -1,440 Descending Albuquerque Center
06:45PM 33.8261 -111.4531 217° Southwest 283 326 11,000 -1,020 Descending Albuquerque Center
06:46PM 33.7631 -111.5078 216° Southwest 281 323 10,200 -960 Descending Albuquerque Center
06:47PM 33.7022 -111.5594 215° Southwest 270 311 9,100 -780 Descending Albuquerque Center
06:48PM 33.6442 -111.6092 215° Southwest 257 296 8,600 -780 Descending Albuquerque Center
06:49PM 33.5919 -111.6522 214° Southwest 233 268 7,500 -1,080 Descending Albuquerque Center
06:50PM 33.5400 -111.6961 215° Southwest 229 264 6,400 -1,200 Descending Albuquerque Center
06:51PM 33.4928 -111.7642 230° Southwest 229 264 5,100 -1,140 Descending Albuquerque Center
06:52PM 33.4636 -111.8292 242° Southwest 224 258 4,100 -1,080 Descending Albuquerque Center
06:53PM 33.4400 -111.8839 243° Southwest 190 219 2,900 -1,080 Descending Albuquerque Center
06:54PM 33.4333 -111.9333 261° West 155 178 2,000 -960 Descending Phoenix TRACON
06:57PM 33.4333 -112.0000 260° West  Level FlightAware Approximate